Flight Number: AVA1573 Duration: 5:00
Departure: Irkutsk (UIII) at 13:45 Distance: 2276.72 Nm
Arrival: Moscow Sheremetyevo (UUEE) at 18:45 Equipment: MD-81

Weather Information
Irkutsk, Russia (UIII) 52-16N 104-19E 469M Aug 14, 2020 - 06:30 PM EDT / 2020.08.14 2230 UTC
Wind: from the E (090 degrees) at 4 MPH (4 KT):0
Visibility: less than 1 mile:0
Sky conditions: obscured Weather: fog Temperature: 55 F (13 C) Dew Point: 55 F (13 C) Relative Humidity: 100% Pressure (altimeter): 29.77 in. Hg (1008 hPa)
ob: UIII 142230Z 09002MPS 0250 0200NW R12/0250N FG VV002 13/13 Q1008 R12/CLRD60 NOSIG RMK QBB060 QFE713/0951 cycle: 22
Sunrise: 21:49 Sunset: 12:24 (UTC)

Moscow / Sheremet'Ye , Russia (UUEE) 55-59N 037-30E Aug 14, 2020 - 06:30 PM EDT / 2020.08.14 2230 UTC
Wind: from the NW (320 degrees) at 4 MPH (4 KT):0
Visibility: greater than 7 mile(s):0 Temperature: 50 F (10 C) Dew Point: 46 F (8 C) Relative Humidity: 87% Pressure (altimeter): 30.03 in. Hg (1017 hPa)
ob: UUEE 142230Z 32002MPS CAVOK 10/08 Q1017 R24L/CLRD62 NOSIG cycle: 22
Sunrise: 02:06 Sunset: 17:03 (UTC)

TAF:2020/08/14 21:21 TAF UUEE 141951Z 1421/1521 31003MPS 9000 SCT020 TX18/1512Z TN08/1502Z

This route has never been flown.

Route map